sensor_id;sensor_type;location;lat;lon;timestamp;pressure;altitude;pressure_sealevel;temperature;humidity
73974;BME280;62336;-26.094;27.994;2023-05-01T00:00:54;85116.18;;;32.91;18.92
73974;BME280;62336;-26.094;27.994;2023-05-01T00:03:20;85122.31;;;32.65;19.03
73974;BME280;62336;-26.094;27.994;2023-05-01T00:05:45;85128.15;;;33.01;19.14
73974;BME280;62336;-26.094;27.994;2023-05-01T00:08:11;85124.17;;;32.98;19.15
73974;BME280;62336;-26.094;27.994;2023-05-01T00:10:36;85126.15;;;32.84;19.00
73974;BME280;62336;-26.094;27.994;2023-05-01T00:13:02;85126.17;;;32.72;19.09
73974;BME280;62336;-26.094;27.994;2023-05-01T00:15:26;85128.31;;;32.93;19.08
73974;BME280;62336;-26.094;27.994;2023-05-01T00:17:53;85122.94;;;32.66;18.96
73974;BME280;62336;-26.094;27.994;2023-05-01T00:20:17;85119.37;;;32.73;18.97
73974;BME280;62336;-26.094;27.994;2023-05-01T00:22:42;85117.62;;;32.72;19.18
73974;BME280;62336;-26.094;27.994;2023-05-01T00:25:09;85119.33;;;32.66;18.96
73974;BME280;62336;-26.094;27.994;2023-05-01T00:27:34;85121.31;;;33.03;19.02
73974;BME280;62336;-26.094;27.994;2023-05-01T00:29:59;85121.17;;;33.21;18.75
73974;BME280;62336;-26.094;27.994;2023-05-01T00:32:25;85115.05;;;33.56;18.41
73974;BME280;62336;-26.094;27.994;2023-05-01T00:34:49;85106.86;;;33.29;18.87
73974;BME280;62336;-26.094;27.994;2023-05-01T00:37:15;85095.73;;;32.76;19.15
73974;BME280;62336;-26.094;27.994;2023-05-01T00:39:42;85093.42;;;33.32;18.57
73974;BME280;62336;-26.094;27.994;2023-05-01T00:42:06;85096.11;;;33.07;19.04
73974;BME280;62336;-26.094;27.994;2023-05-01T00:44:32;85093.94;;;33.39;18.73
73974;BME280;62336;-26.094;27.994;2023-05-01T00:46:57;85097.64;;;33.37;18.82
73974;BME280;62336;-26.094;27.994;2023-05-01T00:49:22;85097.62;;;33.36;19.01
73974;BME280;62336;-26.094;27.994;2023-05-01T00:51:49;85096.54;;;32.81;19.27
73974;BME280;62336;-26.094;27.994;2023-05-01T00:54:13;85098.94;;;32.25;19.68
73974;BME280;62336;-26.094;27.994;2023-05-01T00:56:38;85100.92;;;32.79;19.55
73974;BME280;62336;-26.094;27.994;2023-05-01T00:59:03;85096.70;;;32.46;19.78
73974;BME280;62336;-26.094;27.994;2023-05-01T01:01:28;85098.28;;;32.48;19.68
73974;BME280;62336;-26.094;27.994;2023-05-01T01:03:53;85099.03;;;32.69;19.60
73974;BME280;62336;-26.094;27.994;2023-05-01T01:06:25;85100.67;;;32.59;19.56
73974;BME280;62336;-26.094;27.994;2023-05-01T01:08:52;85098.06;;;32.82;19.53
73974;BME280;62336;-26.094;27.994;2023-05-01T01:11:16;85096.23;;;32.64;19.48
73974;BME280;62336;-26.094;27.994;2023-05-01T01:13:38;85095.85;;;32.56;19.43
73974;BME280;62336;-26.094;27.994;2023-05-01T01:16:08;85096.85;;;33.23;19.31
73974;BME280;62336;-26.094;27.994;2023-05-01T01:18:31;85102.15;;;32.80;19.49
73974;BME280;62336;-26.094;27.994;2023-05-01T01:20:54;85104.77;;;33.23;19.44
73974;BME280;62336;-26.094;27.994;2023-05-01T01:28:16;85100.30;;;33.14;19.40
73974;BME280;62336;-26.094;27.994;2023-05-01T01:30:40;85100.93;;;32.79;19.52
73974;BME280;62336;-26.094;27.994;2023-05-01T01:35:26;85093.95;;;32.73;19.64
73974;BME280;62336;-26.094;27.994;2023-05-01T01:37:50;85092.02;;;33.20;19.45
73974;BME280;62336;-26.094;27.994;2023-05-01T01:40:15;85089.18;;;32.75;19.56
73974;BME280;62336;-26.094;27.994;2023-05-01T01:42:40;85091.23;;;32.69;19.66
73974;BME280;62336;-26.094;27.994;2023-05-01T01:45:05;85094.63;;;32.70;19.42
73974;BME280;62336;-26.094;27.994;2023-05-01T01:47:30;85082.41;;;33.12;19.28
73974;BME280;62336;-26.094;27.994;2023-05-01T01:49:54;85081.53;;;32.99;19.27
73974;BME280;62336;-26.094;27.994;2023-05-01T01:52:20;85086.13;;;33.14;19.22
73974;BME280;62336;-26.094;27.994;2023-05-01T01:54:49;85078.12;;;33.31;19.07
73974;BME280;62336;-26.094;27.994;2023-05-01T01:57:11;85081.55;;;32.41;19.65
73974;BME280;62336;-26.094;27.994;2023-05-01T01:59:36;85085.00;;;33.07;19.36
73974;BME280;62336;-26.094;27.994;2023-05-01T02:02:01;85076.65;;;32.78;19.41
73974;BME280;62336;-26.094;27.994;2023-05-01T02:04:27;85073.84;;;32.87;19.39
73974;BME280;62336;-26.094;27.994;2023-05-01T02:06:51;85073.20;;;32.72;19.53
73974;BME280;62336;-26.094;27.994;2023-05-01T02:09:18;85070.33;;;32.62;19.62
73974;BME280;62336;-26.094;27.994;2023-05-01T02:11:42;85073.78;;;32.68;19.55
73974;BME280;62336;-26.094;27.994;2023-05-01T02:14:08;85074.10;;;32.34;19.77
73974;BME280;62336;-26.094;27.994;2023-05-01T02:16:33;85068.76;;;32.09;19.80
73974;BME280;62336;-26.094;27.994;2023-05-01T02:18:59;85072.21;;;32.57;19.72
73974;BME280;62336;-26.094;27.994;2023-05-01T02:21:24;85071.86;;;32.67;19.50
73974;BME280;62336;-26.094;27.994;2023-05-01T02:23:49;85075.06;;;32.62;19.62
73974;BME280;62336;-26.094;27.994;2023-05-01T02:26:16;85072.27;;;32.52;19.66
73974;BME280;62336;-26.094;27.994;2023-05-01T02:28:41;85073.18;;;32.25;19.78
73974;BME280;62336;-26.094;27.994;2023-05-01T02:31:06;85073.85;;;32.54;19.79
73974;BME280;62336;-26.094;27.994;2023-05-01T02:33:31;85071.87;;;32.24;19.64
73974;BME280;62336;-26.094;27.994;2023-05-01T02:35:57;85067.67;;;32.68;19.60
73974;BME280;62336;-26.094;27.994;2023-05-01T02:38:22;85063.58;;;32.53;19.62
73974;BME280;62336;-26.094;27.994;2023-05-01T02:40:52;85066.16;;;31.92;19.99
73974;BME280;62336;-26.094;27.994;2023-05-01T02:43:17;85068.96;;;32.05;19.83
73974;BME280;62336;-26.094;27.994;2023-05-01T02:45:38;85070.02;;;32.74;19.67
73974;BME280;62336;-26.094;27.994;2023-05-01T02:48:05;85073.32;;;32.84;19.57
73974;BME280;62336;-26.094;27.994;2023-05-01T02:50:29;85073.88;;;32.18;19.66
73974;BME280;62336;-26.094;27.994;2023-05-01T02:52:53;85078.35;;;32.62;19.60
73974;BME280;62336;-26.094;27.994;2023-05-01T02:55:19;85083.26;;;32.62;19.63
73974;BME280;62336;-26.094;27.994;2023-05-01T02:57:44;85083.20;;;32.74;19.42
73974;BME280;62336;-26.094;27.994;2023-05-01T03:00:11;85082.90;;;32.64;19.37
73974;BME280;62336;-26.094;27.994;2023-05-01T03:02:35;85084.11;;;32.67;19.47
73974;BME280;62336;-26.094;27.994;2023-05-01T03:05:01;85087.37;;;32.14;19.88
73974;BME280;62336;-26.094;27.994;2023-05-01T03:07:26;85084.33;;;32.40;19.85
73974;BME280;62336;-26.094;27.994;2023-05-01T03:09:51;85085.22;;;32.13;19.73
73974;BME280;62336;-26.094;27.994;2023-05-01T03:12:16;85090.28;;;33.01;19.39
73974;BME280;62336;-26.094;27.994;2023-05-01T03:14:42;85096.23;;;32.35;19.69
73974;BME280;62336;-26.094;27.994;2023-05-01T03:17:07;85097.14;;;32.68;19.64
73974;BME280;62336;-26.094;27.994;2023-05-01T03:19:33;85094.19;;;32.51;19.46
73974;BME280;62336;-26.094;27.994;2023-05-01T03:21:58;85099.81;;;32.75;19.28
73974;BME280;62336;-26.094;27.994;2023-05-01T03:24:24;85102.36;;;32.44;19.46
73974;BME280;62336;-26.094;27.994;2023-05-01T03:26:50;85101.28;;;32.79;19.42
73974;BME280;62336;-26.094;27.994;2023-05-01T03:29:14;85107.59;;;32.80;19.58
73974;BME280;62336;-26.094;27.994;2023-05-01T03:31:39;85109.13;;;32.74;19.55
73974;BME280;62336;-26.094;27.994;2023-05-01T03:34:04;85107.60;;;32.19;19.72
73974;BME280;62336;-26.094;27.994;2023-05-01T03:36:30;85112.47;;;32.31;19.63
73974;BME280;62336;-26.094;27.994;2023-05-01T03:38:55;85113.09;;;32.54;19.75
73974;BME280;62336;-26.094;27.994;2023-05-01T03:41:21;85110.07;;;32.19;19.86
73974;BME280;62336;-26.094;27.994;2023-05-01T03:43:46;85117.61;;;32.62;19.74
73974;BME280;62336;-26.094;27.994;2023-05-01T03:46:12;85124.32;;;32.74;19.61
73974;BME280;62336;-26.094;27.994;2023-05-01T03:48:38;85117.74;;;32.27;19.85
73974;BME280;62336;-26.094;27.994;2023-05-01T03:51:03;85116.14;;;32.73;19.73
73974;BME280;62336;-26.094;27.994;2023-05-01T03:53:28;85112.65;;;32.59;19.81
73974;BME280;62336;-26.094;27.994;2023-05-01T03:55:53;85113.32;;;32.58;19.69
73974;BME280;62336;-26.094;27.994;2023-05-01T03:58:19;85115.16;;;32.33;19.74
73974;BME280;62336;-26.094;27.994;2023-05-01T04:00:44;85120.50;;;32.39;19.90
73974;BME280;62336;-26.094;27.994;2023-05-01T04:03:10;85128.42;;;32.45;19.92
73974;BME280;62336;-26.094;27.994;2023-05-01T04:05:35;85127.53;;;32.24;19.94
73974;BME280;62336;-26.094;27.994;2023-05-01T04:08:00;85124.95;;;32.12;19.91
73974;BME280;62336;-26.094;27.994;2023-05-01T04:10:26;85130.48;;;32.67;19.80
73974;BME280;62336;-26.094;27.994;2023-05-01T04:12:52;85135.83;;;32.18;19.74
73974;BME280;62336;-26.094;27.994;2023-05-01T04:15:17;85133.49;;;32.25;20.00
73974;BME280;62336;-26.094;27.994;2023-05-01T04:17:44;85135.74;;;32.45;19.96
73974;BME280;62336;-26.094;27.994;2023-05-01T04:20:10;85133.61;;;32.79;19.44
73974;BME280;62336;-26.094;27.994;2023-05-01T04:22:33;85142.98;;;32.67;19.77
73974;BME280;62336;-26.094;27.994;2023-05-01T04:24:59;85142.14;;;32.74;19.60
73974;BME280;62336;-26.094;27.994;2023-05-01T04:27:24;85142.77;;;32.28;19.73
73974;BME280;62336;-26.094;27.994;2023-05-01T04:29:50;85146.22;;;32.53;19.80
73974;BME280;62336;-26.094;27.994;2023-05-01T04:32:16;85149.16;;;32.60;19.82
73974;BME280;62336;-26.094;27.994;2023-05-01T04:34:42;85155.43;;;32.36;19.64
73974;BME280;62336;-26.094;27.994;2023-05-01T04:37:06;85155.56;;;32.31;19.62
73974;BME280;62336;-26.094;27.994;2023-05-01T04:39:31;85159.72;;;32.78;19.51
73974;BME280;62336;-26.094;27.994;2023-05-01T04:41:57;85164.21;;;32.68;19.71
73974;BME280;62336;-26.094;27.994;2023-05-01T04:44:23;85165.74;;;32.72;19.63
73974;BME280;62336;-26.094;27.994;2023-05-01T04:46:49;85163.15;;;32.37;19.53
73974;BME280;62336;-26.094;27.994;2023-05-01T04:49:14;85161.78;;;32.35;19.76
73974;BME280;62336;-26.094;27.994;2023-05-01T04:51:39;85160.21;;;32.18;19.95
73974;BME280;62336;-26.094;27.994;2023-05-01T04:54:04;85165.02;;;32.35;19.90
73974;BME280;62336;-26.094;27.994;2023-05-01T04:56:31;85160.89;;;32.42;19.91
73974;BME280;62336;-26.094;27.994;2023-05-01T04:58:56;85164.89;;;32.26;19.87
73974;BME280;62336;-26.094;27.994;2023-05-01T05:01:22;85165.45;;;32.47;19.79
73974;BME280;62336;-26.094;27.994;2023-05-01T05:03:46;85167.78;;;32.45;19.77
73974;BME280;62336;-26.094;27.994;2023-05-01T05:06:12;85170.45;;;32.57;19.75
73974;BME280;62336;-26.094;27.994;2023-05-01T05:08:36;85170.33;;;32.59;19.71
73974;BME280;62336;-26.094;27.994;2023-05-01T05:11:02;85169.01;;;32.23;20.00
73974;BME280;62336;-26.094;27.994;2023-05-01T05:13:27;85173.73;;;32.54;19.78
73974;BME280;62336;-26.094;27.994;2023-05-01T05:15:52;85177.19;;;32.35;19.63
73974;BME280;62336;-26.094;27.994;2023-05-01T05:18:17;85174.91;;;32.52;19.59
73974;BME280;62336;-26.094;27.994;2023-05-01T05:20:43;85177.16;;;32.85;19.69
73974;BME280;62336;-26.094;27.994;2023-05-01T05:23:09;85181.39;;;32.85;19.85
73974;BME280;62336;-26.094;27.994;2023-05-01T05:25:45;85183.81;;;32.00;20.16
73974;BME280;62336;-26.094;27.994;2023-05-01T05:28:00;85185.08;;;32.44;20.11
73974;BME280;62336;-26.094;27.994;2023-05-01T05:30:28;85190.31;;;32.16;20.23
73974;BME280;62336;-26.094;27.994;2023-05-01T05:32:50;85192.27;;;32.45;19.83
73974;BME280;62336;-26.094;27.994;2023-05-01T05:35:17;85196.05;;;32.54;20.07
73974;BME280;62336;-26.094;27.994;2023-05-01T05:37:41;85200.21;;;32.22;20.20
73974;BME280;62336;-26.094;27.994;2023-05-01T05:40:09;85202.04;;;32.40;20.16
73974;BME280;62336;-26.094;27.994;2023-05-01T05:42:32;85208.91;;;32.14;20.21
73974;BME280;62336;-26.094;27.994;2023-05-01T05:44:58;85208.57;;;32.56;19.94
73974;BME280;62336;-26.094;27.994;2023-05-01T05:47:23;85211.30;;;32.73;19.85
73974;BME280;62336;-26.094;27.994;2023-05-01T05:49:49;85217.84;;;32.90;19.76
73974;BME280;62336;-26.094;27.994;2023-05-01T05:52:15;85221.29;;;33.07;19.56
73974;BME280;62336;-26.094;27.994;2023-05-01T05:54:40;85222.20;;;32.63;19.93
73974;BME280;62336;-26.094;27.994;2023-05-01T05:57:05;85222.50;;;32.39;20.25
73974;BME280;62336;-26.094;27.994;2023-05-01T05:59:29;85228.24;;;32.57;19.92
73974;BME280;62336;-26.094;27.994;2023-05-01T06:01:55;85223.31;;;32.21;20.31
73974;BME280;62336;-26.094;27.994;2023-05-01T06:04:22;85226.19;;;32.20;20.16
73974;BME280;62336;-26.094;27.994;2023-05-01T06:06:46;85229.23;;;32.60;20.13
73974;BME280;62336;-26.094;27.994;2023-05-01T06:09:12;85232.35;;;32.48;20.16
73974;BME280;62336;-26.094;27.994;2023-05-01T06:11:36;85233.78;;;32.80;19.67
73974;BME280;62336;-26.094;27.994;2023-05-01T06:14:02;85237.25;;;32.17;20.18
73974;BME280;62336;-26.094;27.994;2023-05-01T06:16:28;85239.58;;;32.48;20.12
73974;BME280;62336;-26.094;27.994;2023-05-01T06:18:53;85240.59;;;32.41;20.24
73974;BME280;62336;-26.094;27.994;2023-05-01T06:21:18;85244.89;;;32.20;20.21
73974;BME280;62336;-26.094;27.994;2023-05-01T06:23:45;85244.43;;;32.68;20.06
73974;BME280;62336;-26.094;27.994;2023-05-01T06:26:10;85247.40;;;31.89;20.44
73974;BME280;62336;-26.094;27.994;2023-05-01T06:28:36;85247.20;;;32.33;20.01
73974;BME280;62336;-26.094;27.994;2023-05-01T06:30:59;85252.15;;;32.86;19.82
73974;BME280;62336;-26.094;27.994;2023-05-01T06:33:25;85254.22;;;32.63;20.03
73974;BME280;62336;-26.094;27.994;2023-05-01T06:35:51;85253.82;;;32.59;20.29
73974;BME280;62336;-26.094;27.994;2023-05-01T06:38:16;85256.39;;;32.27;20.42
73974;BME280;62336;-26.094;27.994;2023-05-01T06:40:42;85255.85;;;32.20;20.60
73974;BME280;62336;-26.094;27.994;2023-05-01T06:43:09;85253.70;;;32.39;20.51
73974;BME280;62336;-26.094;27.994;2023-05-01T06:45:35;85252.27;;;32.61;20.16
73974;BME280;62336;-26.094;27.994;2023-05-01T06:47:59;85257.76;;;32.59;19.98
73974;BME280;62336;-26.094;27.994;2023-05-01T06:50:25;85255.88;;;33.18;19.75
73974;BME280;62336;-26.094;27.994;2023-05-01T06:52:50;85257.29;;;32.58;19.99
73974;BME280;62336;-26.094;27.994;2023-05-01T06:55:15;85259.03;;;33.03;19.71
73974;BME280;62336;-26.094;27.994;2023-05-01T06:57:40;85262.88;;;32.66;20.06
73974;BME280;62336;-26.094;27.994;2023-05-01T07:00:07;85263.53;;;32.60;20.19
73974;BME280;62336;-26.094;27.994;2023-05-01T07:02:32;85266.21;;;32.54;20.12
73974;BME280;62336;-26.094;27.994;2023-05-01T07:04:57;85263.12;;;32.55;20.09
73974;BME280;62336;-26.094;27.994;2023-05-01T07:07:24;85263.13;;;31.83;20.47
73974;BME280;62336;-26.094;27.994;2023-05-01T07:09:48;85259.54;;;32.42;20.45
73974;BME280;62336;-26.094;27.994;2023-05-01T07:12:14;85258.66;;;32.34;20.20
73974;BME280;62336;-26.094;27.994;2023-05-01T07:14:38;85255.98;;;32.65;19.89
73974;BME280;62336;-26.094;27.994;2023-05-01T07:17:04;85258.83;;;32.91;20.13
73974;BME280;62336;-26.094;27.994;2023-05-01T07:19:30;85258.33;;;32.68;20.07
73974;BME280;62336;-26.094;27.994;2023-05-01T07:21:55;85256.43;;;32.40;20.22
73974;BME280;62336;-26.094;27.994;2023-05-01T07:24:20;85258.45;;;32.49;20.24
73974;BME280;62336;-26.094;27.994;2023-05-01T07:26:47;85255.64;;;32.75;19.80
73974;BME280;62336;-26.094;27.994;2023-05-01T07:29:11;85256.79;;;32.61;20.17
73974;BME280;62336;-26.094;27.994;2023-05-01T07:31:36;85260.38;;;32.70;19.84
73974;BME280;62336;-26.094;27.994;2023-05-01T07:34:01;85256.15;;;32.81;19.83
73974;BME280;62336;-26.094;27.994;2023-05-01T07:36:26;85257.22;;;33.08;19.58
73974;BME280;62336;-26.094;27.994;2023-05-01T07:38:52;85256.47;;;32.89;19.38
73974;BME280;62336;-26.094;27.994;2023-05-01T07:41:19;85258.54;;;33.00;19.61
73974;BME280;62336;-26.094;27.994;2023-05-01T07:43:44;85258.79;;;33.39;19.55
73974;BME280;62336;-26.094;27.994;2023-05-01T07:46:10;85261.50;;;33.46;19.25
73974;BME280;62336;-26.094;27.994;2023-05-01T07:48:34;85258.16;;;33.01;19.70
73974;BME280;62336;-26.094;27.994;2023-05-01T07:51:02;85259.70;;;33.19;19.49
73974;BME280;62336;-26.094;27.994;2023-05-01T07:53:24;85261.81;;;33.33;19.20
73974;BME280;62336;-26.094;27.994;2023-05-01T07:55:50;85262.36;;;33.78;18.96
73974;BME280;62336;-26.094;27.994;2023-05-01T07:58:16;85262.05;;;33.64;18.95
73974;BME280;62336;-26.094;27.994;2023-05-01T08:00:41;85261.13;;;33.72;19.01
73974;BME280;62336;-26.094;27.994;2023-05-01T08:03:07;85258.29;;;33.61;18.79
73974;BME280;62336;-26.094;27.994;2023-05-01T08:05:32;85253.89;;;33.12;19.31
73974;BME280;62336;-26.094;27.994;2023-05-01T08:07:57;85256.40;;;33.26;19.28
73974;BME280;62336;-26.094;27.994;2023-05-01T08:10:22;85253.35;;;33.40;19.31
73974;BME280;62336;-26.094;27.994;2023-05-01T08:12:48;85254.80;;;33.48;19.31
73974;BME280;62336;-26.094;27.994;2023-05-01T08:15:13;85253.46;;;33.49;19.11
73974;BME280;62336;-26.094;27.994;2023-05-01T08:17:38;85258.10;;;33.55;19.30
73974;BME280;62336;-26.094;27.994;2023-05-01T08:20:04;85258.39;;;33.44;19.07
73974;BME280;62336;-26.094;27.994;2023-05-01T08:22:29;85255.79;;;33.53;19.02
73974;BME280;62336;-26.094;27.994;2023-05-01T08:24:55;85253.08;;;33.42;19.16
73974;BME280;62336;-26.094;27.994;2023-05-01T08:27:19;85253.02;;;33.49;19.16
73974;BME280;62336;-26.094;27.994;2023-05-01T08:29:45;85249.98;;;33.11;19.47
73974;BME280;62336;-26.094;27.994;2023-05-01T08:32:13;85254.90;;;33.13;19.33
73974;BME280;62336;-26.094;27.994;2023-05-01T08:34:36;85248.33;;;33.24;19.27
73974;BME280;62336;-26.094;27.994;2023-05-01T08:37:02;85253.17;;;33.42;19.24
73974;BME280;62336;-26.094;27.994;2023-05-01T08:39:27;85252.54;;;33.40;19.16
73974;BME280;62336;-26.094;27.994;2023-05-01T08:41:52;85250.69;;;33.45;19.26
73974;BME280;62336;-26.094;27.994;2023-05-01T08:44:19;85251.70;;;33.34;19.27
73974;BME280;62336;-26.094;27.994;2023-05-01T08:46:47;85247.37;;;33.32;19.51
73974;BME280;62336;-26.094;27.994;2023-05-01T08:49:09;85246.77;;;33.55;19.35
73974;BME280;62336;-26.094;27.994;2023-05-01T08:51:34;85249.54;;;33.91;19.01
73974;BME280;62336;-26.094;27.994;2023-05-01T08:54:01;85247.96;;;33.81;18.91
73974;BME280;62336;-26.094;27.994;2023-05-01T08:56:25;85248.01;;;33.79;19.19
73974;BME280;62336;-26.094;27.994;2023-05-01T08:58:51;85250.52;;;33.53;19.06
73974;BME280;62336;-26.094;27.994;2023-05-01T09:01:16;85247.72;;;33.54;19.12
73974;BME280;62336;-26.094;27.994;2023-05-01T09:03:42;85246.73;;;33.61;19.13
73974;BME280;62336;-26.094;27.994;2023-05-01T09:06:08;85239.04;;;33.75;18.86
73974;BME280;62336;-26.094;27.994;2023-05-01T09:08:33;85236.81;;;33.55;18.71
73974;BME280;62336;-26.094;27.994;2023-05-01T09:10:59;85234.54;;;33.72;18.99
73974;BME280;62336;-26.094;27.994;2023-05-01T09:13:25;85230.91;;;33.68;18.92
73974;BME280;62336;-26.094;27.994;2023-05-01T09:15:51;85229.95;;;33.70;18.91
73974;BME280;62336;-26.094;27.994;2023-05-01T09:18:15;85228.27;;;33.83;18.82
73974;BME280;62336;-26.094;27.994;2023-05-01T09:20:40;85223.28;;;33.99;18.84
73974;BME280;62336;-26.094;27.994;2023-05-01T09:23:05;85218.11;;;33.39;19.05
73974;BME280;62336;-26.094;27.994;2023-05-01T09:25:30;85217.11;;;34.15;19.02
73974;BME280;62336;-26.094;27.994;2023-05-01T09:27:56;85215.65;;;33.75;19.11
73974;BME280;62336;-26.094;27.994;2023-05-01T09:30:29;85212.82;;;34.24;18.63
73974;BME280;62336;-26.094;27.994;2023-05-01T09:32:46;85212.54;;;34.04;18.76
73974;BME280;62336;-26.094;27.994;2023-05-01T09:35:13;85212.55;;;34.00;18.68
73974;BME280;62336;-26.094;27.994;2023-05-01T09:37:38;85204.34;;;34.19;18.47
73974;BME280;62336;-26.094;27.994;2023-05-01T09:40:05;85206.79;;;34.03;18.88
73974;BME280;62336;-26.094;27.994;2023-05-01T09:42:27;85206.63;;;34.41;18.35
73974;BME280;62336;-26.094;27.994;2023-05-01T09:44:52;85205.27;;;34.22;18.44
73974;BME280;62336;-26.094;27.994;2023-05-01T09:47:21;85205.81;;;34.15;18.47
73974;BME280;62336;-26.094;27.994;2023-05-01T09:49:45;85202.04;;;34.34;18.38
73974;BME280;62336;-26.094;27.994;2023-05-01T09:52:12;85203.00;;;34.16;18.43
73974;BME280;62336;-26.094;27.994;2023-05-01T09:54:35;85200.96;;;34.48;18.30
73974;BME280;62336;-26.094;27.994;2023-05-01T09:57:00;85195.54;;;34.12;18.43
73974;BME280;62336;-26.094;27.994;2023-05-01T09:59:26;85195.67;;;34.10;18.50
73974;BME280;62336;-26.094;27.994;2023-05-01T10:01:51;85194.11;;;34.62;18.41
73974;BME280;62336;-26.094;27.994;2023-05-01T10:04:17;85192.81;;;34.10;18.71
73974;BME280;62336;-26.094;27.994;2023-05-01T10:06:42;85187.87;;;34.11;18.84
73974;BME280;62336;-26.094;27.994;2023-05-01T10:09:08;85186.38;;;34.57;18.45
73974;BME280;62336;-26.094;27.994;2023-05-01T10:14:08;85172.01;;;34.02;18.95
73974;BME280;62336;-26.094;27.994;2023-05-01T10:16:29;85172.23;;;33.92;18.83
73974;BME280;62336;-26.094;27.994;2023-05-01T10:18:50;85165.41;;;34.37;18.48
73974;BME280;62336;-26.094;27.994;2023-05-01T10:21:15;85163.79;;;34.32;18.51
73974;BME280;62336;-26.094;27.994;2023-05-01T10:23:45;85164.83;;;34.00;18.54
73974;BME280;62336;-26.094;27.994;2023-05-01T10:26:07;85162.37;;;34.81;18.14
73974;BME280;62336;-26.094;27.994;2023-05-01T10:28:33;85157.48;;;34.73;18.02
73974;BME280;62336;-26.094;27.994;2023-05-01T10:30:58;85156.18;;;34.13;18.40
73974;BME280;62336;-26.094;27.994;2023-05-01T10:33:24;85151.59;;;34.75;17.94
73974;BME280;62336;-26.094;27.994;2023-05-01T10:35:54;85145.18;;;34.49;18.14
73974;BME280;62336;-26.094;27.994;2023-05-01T10:38:21;85142.00;;;34.49;18.25
73974;BME280;62336;-26.094;27.994;2023-05-01T10:40:45;85144.85;;;34.17;18.37
73974;BME280;62336;-26.094;27.994;2023-05-01T10:43:19;85131.46;;;34.47;18.22
73974;BME280;62336;-26.094;27.994;2023-05-01T10:45:31;85125.40;;;34.90;17.81
73974;BME280;62336;-26.094;27.994;2023-05-01T10:47:56;85128.36;;;34.52;18.23
73974;BME280;62336;-26.094;27.994;2023-05-01T10:50:21;85124.41;;;34.45;18.27
73974;BME280;62336;-26.094;27.994;2023-05-01T10:57:44;85104.60;;;35.07;17.93
73974;BME280;62336;-26.094;27.994;2023-05-01T11:00:20;85104.20;;;34.80;17.99
73974;BME280;62336;-26.094;27.994;2023-05-01T11:02:27;85099.61;;;35.07;17.75
73974;BME280;62336;-26.094;27.994;2023-05-01T11:04:54;85095.75;;;35.27;18.34
73974;BME280;62336;-26.094;27.994;2023-05-01T11:07:20;85099.01;;;35.63;17.70
73974;BME280;62336;-26.094;27.994;2023-05-01T11:09:46;85092.59;;;35.36;17.41
73974;BME280;62336;-26.094;27.994;2023-05-01T11:12:12;85091.75;;;34.80;17.69
73974;BME280;62336;-26.094;27.994;2023-05-01T11:17:01;85092.88;;;35.35;17.53
73974;BME280;62336;-26.094;27.994;2023-05-01T11:21:52;85083.60;;;35.63;17.39
73974;BME280;62336;-26.094;27.994;2023-05-01T11:24:18;85082.44;;;35.39;17.20
73974;BME280;62336;-26.094;27.994;2023-05-01T11:26:43;85083.80;;;35.12;17.44
73974;BME280;62336;-26.094;27.994;2023-05-01T11:29:10;85078.94;;;35.36;17.42
73974;BME280;62336;-26.094;27.994;2023-05-01T11:31:34;85076.68;;;35.39;17.23
73974;BME280;62336;-26.094;27.994;2023-05-01T11:33:59;85070.56;;;35.65;17.26
73974;BME280;62336;-26.094;27.994;2023-05-01T11:36:24;85067.59;;;35.37;17.50
73974;BME280;62336;-26.094;27.994;2023-05-01T11:38:49;85064.99;;;35.98;16.91
73974;BME280;62336;-26.094;27.994;2023-05-01T11:41:14;85060.95;;;35.74;17.19
73974;BME280;62336;-26.094;27.994;2023-05-01T11:43:48;85061.38;;;35.69;17.15
73974;BME280;62336;-26.094;27.994;2023-05-01T11:46:05;85060.12;;;36.09;17.00
73974;BME280;62336;-26.094;27.994;2023-05-01T11:48:31;85059.66;;;35.96;16.39
73974;BME280;62336;-26.094;27.994;2023-05-01T11:50:56;85061.65;;;36.20;16.88
73974;BME280;62336;-26.094;27.994;2023-05-01T11:53:21;85059.24;;;36.20;16.40
73974;BME280;62336;-26.094;27.994;2023-05-01T11:55:46;85066.90;;;35.89;16.49
73974;BME280;62336;-26.094;27.994;2023-05-01T11:58:12;85061.96;;;36.45;16.19
73974;BME280;62336;-26.094;27.994;2023-05-01T12:00:38;85053.16;;;36.14;16.32
73974;BME280;62336;-26.094;27.994;2023-05-01T12:03:04;85052.56;;;35.86;16.64
73974;BME280;62336;-26.094;27.994;2023-05-01T12:05:30;85053.27;;;36.13;16.65
73974;BME280;62336;-26.094;27.994;2023-05-01T12:08:07;85051.72;;;36.61;15.67
73974;BME280;62336;-26.094;27.994;2023-05-01T12:10:19;85045.86;;;35.68;16.42
73974;BME280;62336;-26.094;27.994;2023-05-01T12:12:44;85045.60;;;35.31;16.71
73974;BME280;62336;-26.094;27.994;2023-05-01T12:15:11;85040.39;;;35.83;16.35
73974;BME280;62336;-26.094;27.994;2023-05-01T12:17:36;85039.78;;;35.59;16.76
73974;BME280;62336;-26.094;27.994;2023-05-01T12:20:03;85037.52;;;35.74;16.48
73974;BME280;62336;-26.094;27.994;2023-05-01T12:22:26;85038.09;;;35.96;16.32
73974;BME280;62336;-26.094;27.994;2023-05-01T12:24:52;85040.49;;;35.79;16.18
73974;BME280;62336;-26.094;27.994;2023-05-01T12:27:19;85034.54;;;35.46;16.45
73974;BME280;62336;-26.094;27.994;2023-05-01T12:29:43;85033.73;;;35.39;16.90
73974;BME280;62336;-26.094;27.994;2023-05-01T12:32:09;85031.03;;;35.82;16.70
73974;BME280;62336;-26.094;27.994;2023-05-01T12:34:34;85026.75;;;35.95;16.73
73974;BME280;62336;-26.094;27.994;2023-05-01T12:36:59;85024.05;;;35.73;16.62
73974;BME280;62336;-26.094;27.994;2023-05-01T12:39:25;85021.90;;;35.83;16.24
73974;BME280;62336;-26.094;27.994;2023-05-01T12:41:51;85017.22;;;36.36;16.19
73974;BME280;62336;-26.094;27.994;2023-05-01T12:44:19;85019.15;;;36.47;15.63
73974;BME280;62336;-26.094;27.994;2023-05-01T12:46:41;85011.27;;;36.34;15.84
73974;BME280;62336;-26.094;27.994;2023-05-01T12:49:07;85008.89;;;36.12;16.24